createdAt,value
2019-02-19T00:01:00.762Z,2.00
2019-02-19T00:03:30.341Z,1.90
2019-02-19T00:05:59.769Z,1.90
2019-02-19T00:08:29.085Z,1.90
2019-02-19T00:10:58.524Z,1.80
2019-02-19T00:13:27.854Z,1.80
2019-02-19T00:15:58.303Z,1.80
2019-02-19T00:18:27.775Z,1.70
2019-02-19T00:20:57.211Z,1.70
2019-02-19T00:23:26.476Z,1.70
2019-02-19T00:25:55.772Z,1.70
2019-02-19T00:28:25.392Z,1.60
2019-02-19T00:30:56.871Z,1.60
2019-02-19T00:33:26.289Z,1.60
2019-02-19T00:35:55.513Z,1.60
2019-02-19T00:38:24.886Z,1.50
2019-02-19T00:40:54.173Z,1.50
2019-02-19T00:43:31.397Z,1.40
2019-02-19T00:46:00.918Z,1.40
2019-02-19T00:48:30.341Z,1.40
2019-02-19T00:51:00.203Z,1.30
2019-02-19T00:53:29.689Z,1.30
2019-02-19T00:55:58.938Z,1.20
2019-02-19T00:58:28.737Z,1.20
2019-02-19T01:00:58.029Z,1.10
2019-02-19T01:03:27.583Z,1.10
2019-02-19T01:05:56.854Z,1.10
2019-02-19T01:08:26.378Z,1.10
2019-02-19T01:10:55.612Z,1.00
2019-02-19T01:13:24.945Z,1.00
2019-02-19T01:15:55.932Z,1.00
2019-02-19T01:18:25.355Z,1.00
2019-02-19T01:20:54.688Z,0.90
2019-02-19T01:23:23.991Z,0.90
2019-02-19T01:25:53.438Z,0.90
2019-02-19T01:28:22.727Z,1.00
2019-02-19T01:30:52.241Z,1.00
2019-02-19T01:33:21.519Z,1.00
2019-02-19T01:35:51.253Z,1.00
2019-02-19T01:38:20.630Z,0.90
2019-02-19T01:40:50.050Z,0.90
2019-02-19T01:43:19.365Z,0.90
2019-02-19T01:45:48.664Z,0.90
2019-02-19T01:48:17.913Z,0.90
2019-02-19T01:50:48.877Z,0.90
2019-02-19T01:53:18.169Z,0.90
2019-02-19T01:55:47.414Z,0.90
2019-02-19T01:58:16.922Z,0.90
2019-02-19T02:00:46.233Z,0.90
2019-02-19T02:03:24.633Z,0.80
2019-02-19T02:05:53.882Z,0.80
2019-02-19T02:08:31.360Z,0.90
2019-02-19T02:11:00.613Z,0.90
2019-02-19T02:13:30.127Z,0.90
2019-02-19T02:15:59.404Z,0.90
2019-02-19T02:18:28.803Z,1.00
2019-02-19T02:20:58.080Z,1.00
2019-02-19T02:23:27.348Z,1.00
2019-02-19T02:25:56.817Z,1.00
2019-02-19T02:28:26.071Z,1.00
2019-02-19T02:30:55.476Z,1.10
2019-02-19T02:33:24.801Z,1.10
2019-02-19T02:35:54.157Z,1.20
2019-02-19T02:38:23.828Z,1.20
2019-02-19T02:40:55.049Z,1.30
2019-02-19T02:43:24.196Z,1.20
2019-02-19T02:45:53.944Z,1.20
2019-02-19T02:48:23.416Z,1.20
2019-02-19T02:50:53.610Z,1.30
2019-02-19T02:53:23.018Z,1.30
2019-02-19T02:55:52.292Z,1.30
2019-02-19T02:58:21.632Z,1.40
2019-02-19T03:00:50.916Z,1.30
2019-02-19T03:03:23.117Z,1.30
2019-02-19T03:06:07.040Z,1.30
2019-02-19T03:08:36.344Z,1.20
2019-02-19T03:11:05.724Z,1.20
2019-02-19T03:13:35.005Z,1.10
2019-02-19T03:16:04.404Z,1.10
2019-02-19T03:18:33.686Z,1.10
2019-02-19T03:21:02.945Z,1.00
2019-02-19T03:23:32.180Z,1.00
2019-02-19T03:26:01.546Z,1.00
2019-02-19T03:28:31.009Z,1.00
2019-02-19T03:31:00.260Z,1.00
2019-02-19T03:33:29.725Z,1.00
2019-02-19T03:35:58.977Z,1.00
2019-02-19T03:38:28.391Z,1.00
2019-02-19T03:40:59.538Z,0.90
2019-02-19T03:43:29.026Z,0.90
2019-02-19T03:45:58.350Z,0.90
2019-02-19T03:48:27.815Z,0.80
2019-02-19T03:50:57.049Z,0.70
2019-02-19T03:53:26.309Z,0.70
2019-02-19T03:55:55.632Z,0.70
2019-02-19T03:58:25.045Z,0.70
2019-02-19T04:00:54.417Z,0.60
2019-02-19T04:03:23.794Z,0.60
2019-02-19T04:05:53.062Z,0.50
2019-02-19T04:08:22.531Z,0.50
2019-02-19T04:10:52.086Z,0.40
2019-02-19T04:13:21.418Z,0.40
2019-02-19T04:15:50.737Z,0.40
2019-02-19T04:18:20.213Z,0.40
2019-02-19T04:20:49.464Z,0.50
2019-02-19T04:23:18.758Z,0.60
2019-02-19T04:25:48.018Z,0.60
2019-02-19T04:28:17.576Z,0.70
2019-02-19T04:30:46.873Z,0.70
2019-02-19T04:33:16.963Z,0.80
2019-02-19T04:35:46.286Z,0.80
2019-02-19T04:38:15.804Z,0.70
2019-02-19T04:40:45.077Z,0.60
2019-02-19T04:43:15.481Z,0.50
2019-02-19T04:45:44.805Z,0.40
2019-02-19T04:48:14.338Z,0.40
2019-02-19T04:50:43.595Z,0.40
2019-02-19T04:53:13.037Z,0.30
2019-02-19T04:55:44.116Z,0.30
2019-02-19T04:58:13.578Z,0.30
2019-02-19T05:00:42.853Z,0.30
2019-02-19T05:03:13.344Z,0.40
2019-02-19T05:05:43.721Z,0.50
2019-02-19T05:08:15.356Z,0.60
2019-02-19T05:10:44.689Z,0.60
2019-02-19T05:13:15.377Z,0.60
2019-02-19T05:15:45.823Z,0.60
2019-02-19T05:18:15.184Z,0.50
2019-02-19T05:20:44.549Z,0.50
2019-02-19T05:23:14.338Z,0.40
2019-02-19T05:25:43.641Z,0.40
2019-02-19T05:28:13.880Z,0.30
2019-02-19T05:30:43.196Z,0.20
2019-02-19T05:33:12.656Z,0.10
2019-02-19T05:35:42.069Z,0.00
2019-02-19T05:38:11.331Z,0.00
2019-02-19T05:40:40.729Z,0.00
2019-02-19T05:43:10.014Z,0.00
2019-02-19T05:45:40.593Z,-0.10
2019-02-19T05:48:10.582Z,-0.20
2019-02-19T05:50:39.874Z,-0.20
2019-02-19T05:53:12.386Z,-0.20
2019-02-19T05:55:41.730Z,-0.20
2019-02-19T05:58:11.085Z,-0.10
2019-02-19T06:00:40.428Z,-0.10
2019-02-19T06:03:09.827Z,-0.10
2019-02-19T06:05:39.142Z,0.00
2019-02-19T06:08:08.603Z,0.00
2019-02-19T06:10:39.024Z,0.00
2019-02-19T06:13:08.983Z,0.10
2019-02-19T06:15:38.240Z,0.10
2019-02-19T06:18:07.541Z,0.30
2019-02-19T06:20:36.955Z,0.40
2019-02-19T06:23:06.281Z,0.40
2019-02-19T06:25:35.645Z,0.50
2019-02-19T06:28:04.882Z,0.50
2019-02-19T06:30:35.069Z,0.50
2019-02-19T06:33:04.447Z,0.60
2019-02-19T06:35:33.845Z,0.70
2019-02-19T06:38:04.484Z,0.80
2019-02-19T06:40:33.969Z,0.90
2019-02-19T06:43:03.345Z,0.90
2019-02-19T06:45:33.676Z,1.00
2019-02-19T06:48:06.321Z,1.10
2019-02-19T06:50:35.708Z,1.20
2019-02-19T06:53:05.099Z,1.20
2019-02-19T06:55:34.401Z,1.30
2019-02-19T06:58:03.745Z,1.30
2019-02-19T07:00:33.005Z,1.30
2019-02-19T07:03:12.865Z,1.40
2019-02-19T07:05:42.103Z,1.50
2019-02-19T07:08:12.493Z,1.60
2019-02-19T07:10:41.781Z,1.70
2019-02-19T07:13:12.254Z,1.80
2019-02-19T07:15:41.522Z,1.80
2019-02-19T07:18:10.889Z,1.90
2019-02-19T07:20:40.243Z,2.00
2019-02-19T07:23:20.837Z,2.10
2019-02-19T07:25:50.214Z,2.10
2019-02-19T07:28:19.660Z,2.20
2019-02-19T07:31:00.271Z,2.20
2019-02-19T07:33:30.730Z,2.30
2019-02-19T07:36:00.077Z,2.40
2019-02-19T07:38:30.151Z,2.40
2019-02-19T07:40:59.486Z,2.50
2019-02-19T07:43:29.128Z,2.60
2019-02-19T07:45:58.360Z,2.70
2019-02-19T07:48:27.764Z,2.90
2019-02-19T07:50:57.039Z,3.00
2019-02-19T07:53:26.552Z,3.10
2019-02-19T07:55:55.879Z,3.20
2019-02-19T07:58:25.292Z,3.30
2019-02-19T08:00:54.557Z,3.40
2019-02-19T08:03:24.039Z,3.60
2019-02-19T08:05:53.320Z,3.70
2019-02-19T08:08:22.898Z,3.80
2019-02-19T08:10:52.181Z,3.90
2019-02-19T08:13:21.645Z,4.00
2019-02-19T08:15:50.986Z,4.10
2019-02-19T08:18:20.228Z,4.20
2019-02-19T08:20:49.717Z,4.40
2019-02-19T08:23:18.948Z,4.50
2019-02-19T08:25:48.291Z,4.70
2019-02-19T08:28:17.662Z,4.90
2019-02-19T08:30:47.008Z,5.10
2019-02-19T08:33:16.457Z,5.20
2019-02-19T08:35:45.881Z,5.40
2019-02-19T08:38:15.288Z,5.50
2019-02-19T08:40:44.516Z,5.80
2019-02-19T08:43:15.168Z,5.90
2019-02-19T08:45:44.456Z,6.20
2019-02-19T08:48:13.789Z,6.50
2019-02-19T08:50:43.149Z,6.90
2019-02-19T08:53:12.637Z,7.30
2019-02-19T08:55:43.203Z,7.80
2019-02-19T08:58:12.712Z,8.90
2019-02-19T09:00:42.033Z,10.90
2019-02-19T09:03:12.944Z,13.00
2019-02-19T09:05:42.197Z,14.70
2019-02-19T09:08:11.633Z,15.70
2019-02-19T09:10:42.102Z,16.40
2019-02-19T09:13:11.390Z,16.60
2019-02-19T09:15:41.174Z,16.80
2019-02-19T09:18:10.554Z,16.90
2019-02-19T09:20:39.940Z,17.20
2019-02-19T09:23:09.265Z,17.10
2019-02-19T09:25:38.552Z,17.00
2019-02-19T09:28:07.857Z,17.00
2019-02-19T09:30:37.283Z,17.10
2019-02-19T09:33:06.538Z,17.50
2019-02-19T09:35:36.104Z,17.60
2019-02-19T09:38:05.409Z,17.60
2019-02-19T09:40:34.812Z,17.50
2019-02-19T09:43:04.079Z,17.60
2019-02-19T09:45:33.809Z,17.70
2019-02-19T09:48:03.080Z,17.90
2019-02-19T09:50:32.496Z,17.80
2019-02-19T09:53:01.848Z,18.00
2019-02-19T09:55:31.221Z,18.00
2019-02-19T09:58:00.498Z,18.00
2019-02-19T10:00:29.850Z,17.60
2019-02-19T10:02:59.067Z,17.30
2019-02-19T10:05:28.399Z,17.40
2019-02-19T10:07:57.755Z,17.20
2019-02-19T10:10:27.054Z,17.30
2019-02-19T10:12:57.261Z,17.50
2019-02-19T10:15:26.543Z,17.20
2019-02-19T10:17:55.963Z,17.50
2019-02-19T10:20:25.129Z,17.30
2019-02-19T10:22:54.461Z,17.50
2019-02-19T10:25:24.045Z,17.70
2019-02-19T10:27:53.586Z,17.50
2019-02-19T10:30:22.846Z,17.80
2019-02-19T10:32:52.260Z,18.00
2019-02-19T10:35:21.508Z,18.20
2019-02-19T10:37:51.814Z,18.30
2019-02-19T10:40:21.387Z,17.90
2019-02-19T10:42:50.784Z,17.90
2019-02-19T10:45:20.187Z,17.90
2019-02-19T10:47:49.576Z,18.10
2019-02-19T10:50:18.925Z,18.30
2019-02-19T10:52:49.389Z,18.40
2019-02-19T10:55:18.677Z,18.50
2019-02-19T10:57:48.076Z,18.20
2019-02-19T11:00:18.239Z,18.30
2019-02-19T11:02:47.787Z,18.20
2019-02-19T11:05:17.146Z,18.20
2019-02-19T11:07:48.422Z,18.40
2019-02-19T11:10:17.767Z,18.20
2019-02-19T11:12:47.298Z,18.30
2019-02-19T11:15:17.482Z,18.30
2019-02-19T11:17:47.057Z,18.30
2019-02-19T11:20:16.368Z,18.00
2019-02-19T11:22:46.208Z,17.80
2019-02-19T11:25:15.629Z,17.40
2019-02-19T11:27:44.976Z,17.00
2019-02-19T11:30:15.793Z,17.10
2019-02-19T11:32:45.196Z,17.20
2019-02-19T11:35:15.917Z,17.30
2019-02-19T11:37:45.383Z,17.10
2019-02-19T11:40:14.641Z,17.20
2019-02-19T11:42:44.068Z,16.90
2019-02-19T11:45:14.069Z,16.70
2019-02-19T11:47:43.483Z,16.70
2019-02-19T11:50:13.009Z,16.40
2019-02-19T11:52:42.532Z,16.50
2019-02-19T11:55:12.717Z,16.50
2019-02-19T11:57:42.249Z,16.30
2019-02-19T12:00:15.767Z,16.30
2019-02-19T12:02:45.102Z,16.30
2019-02-19T12:05:14.464Z,16.40
2019-02-19T12:07:44.609Z,16.40
2019-02-19T12:10:13.986Z,16.60
2019-02-19T12:12:44.465Z,16.80
2019-02-19T12:15:13.878Z,16.70
2019-02-19T12:17:44.249Z,16.60
2019-02-19T12:20:13.522Z,16.60
2019-02-19T12:22:43.024Z,16.40
2019-02-19T12:25:12.304Z,16.40
2019-02-19T12:27:41.550Z,16.30
2019-02-19T12:30:12.741Z,16.20
2019-02-19T12:32:42.018Z,16.00
2019-02-19T12:35:12.293Z,15.70
2019-02-19T12:37:41.639Z,15.40
2019-02-19T12:40:11.520Z,15.10
2019-02-19T12:42:41.036Z,15.00
2019-02-19T12:45:11.071Z,14.90
2019-02-19T12:47:41.597Z,14.80
2019-02-19T12:50:12.924Z,14.70
2019-02-19T12:52:42.195Z,14.60
2019-02-19T12:55:11.865Z,14.50
2019-02-19T12:57:41.167Z,14.50
2019-02-19T13:00:13.256Z,14.50
2019-02-19T13:02:44.051Z,14.40
2019-02-19T13:05:14.205Z,14.40
2019-02-19T13:07:43.646Z,14.40
2019-02-19T13:10:13.659Z,14.40
2019-02-19T13:12:42.916Z,14.30
2019-02-19T13:15:13.749Z,14.30
2019-02-19T13:17:43.043Z,14.30
2019-02-19T13:20:13.185Z,14.30
2019-02-19T13:22:42.598Z,14.30
2019-02-19T13:25:11.985Z,14.30
2019-02-19T13:27:41.336Z,14.30
2019-02-19T13:30:13.004Z,14.30
2019-02-19T13:32:42.326Z,14.30
2019-02-19T13:35:12.615Z,14.30
2019-02-19T13:37:41.969Z,14.30
2019-02-19T13:40:12.107Z,14.30
2019-02-19T13:42:41.544Z,14.40
2019-02-19T13:45:12.097Z,14.40
2019-02-19T13:47:41.542Z,14.40
2019-02-19T13:50:13.430Z,14.40
2019-02-19T13:53:02.528Z,14.40
2019-02-19T13:55:34.814Z,14.30
2019-02-19T13:58:05.731Z,14.40
2019-02-19T14:00:37.713Z,14.30
2019-02-19T14:03:07.054Z,14.30
2019-02-19T14:05:36.342Z,14.30
2019-02-19T14:08:13.967Z,14.20
2019-02-19T14:10:36.962Z,14.20
2019-02-19T14:13:06.293Z,14.10
2019-02-19T14:15:51.158Z,14.10
2019-02-19T14:18:27.813Z,14.10
2019-02-19T14:21:08.116Z,14.20
2019-02-19T14:24:09.307Z,14.10
2019-02-19T14:26:50.865Z,14.10
2019-02-19T14:29:36.629Z,14.20
2019-02-19T14:32:28.735Z,14.20
2019-02-19T14:35:20.855Z,14.10
2019-02-19T14:38:01.154Z,14.10
2019-02-19T14:40:48.330Z,14.00
2019-02-19T14:43:39.618Z,13.90
2019-02-19T14:46:20.813Z,13.90
2019-02-19T14:49:04.708Z,13.90
2019-02-19T14:52:02.089Z,13.90
2019-02-19T14:54:59.537Z,13.80
2019-02-19T14:57:41.473Z,13.80
2019-02-19T15:00:36.185Z,13.70
2019-02-19T15:03:30.905Z,13.70
2019-02-19T15:06:19.272Z,13.60
2019-02-19T15:09:16.382Z,13.60
2019-02-19T15:11:59.160Z,13.50
2019-02-19T15:14:47.565Z,13.40
2019-02-19T15:17:47.873Z,13.40
2019-02-19T15:20:31.507Z,13.30
2019-02-19T15:23:19.803Z,13.20
2019-02-19T15:26:00.912Z,13.10
2019-02-19T15:28:55.061Z,13.00
2019-02-19T15:31:35.885Z,13.00
2019-02-19T15:34:27.506Z,13.00
2019-02-19T15:37:21.802Z,12.90
2019-02-19T15:40:01.471Z,12.80
2019-02-19T15:42:49.762Z,12.70
2019-02-19T15:45:45.462Z,12.70
2019-02-19T15:48:48.557Z,12.60
2019-02-19T15:51:39.405Z,12.60
2019-02-19T15:54:27.566Z,12.50
2019-02-19T15:57:18.932Z,12.50
2019-02-19T16:00:06.758Z,12.40
2019-02-19T16:02:47.855Z,12.30
2019-02-19T16:05:45.181Z,12.20
2019-02-19T16:08:33.520Z,12.10
2019-02-19T16:11:12.292Z,12.00
2019-02-19T16:13:55.522Z,11.90
2019-02-19T16:16:42.961Z,11.80
2019-02-19T16:19:32.645Z,11.80
2019-02-19T16:22:27.990Z,11.70
2019-02-19T16:25:16.435Z,11.60
2019-02-19T16:28:01.432Z,11.50
2019-02-19T16:30:48.661Z,11.40
2019-02-19T16:33:35.875Z,11.30
2019-02-19T16:36:22.571Z,11.20
2019-02-19T16:39:09.824Z,11.20
2019-02-19T16:41:54.957Z,11.10
2019-02-19T16:44:30.165Z,11.10
2019-02-19T16:47:09.367Z,11.00
2019-02-19T16:50:07.630Z,11.00
2019-02-19T16:52:57.051Z,11.00
2019-02-19T16:55:43.417Z,11.00
2019-02-19T16:58:18.435Z,10.90
2019-02-19T17:01:06.217Z,10.80
2019-02-19T17:03:57.674Z,10.80
2019-02-19T17:06:44.995Z,10.70
2019-02-19T17:09:19.221Z,10.70
2019-02-19T17:12:07.591Z,10.60
2019-02-19T17:14:59.024Z,10.60
2019-02-19T17:17:46.318Z,10.60
2019-02-19T17:20:51.475Z,10.50
2019-02-19T17:23:38.832Z,10.40
2019-02-19T17:26:17.416Z,10.40
2019-02-19T17:29:04.315Z,10.40
2019-02-19T17:31:45.889Z,10.30
2019-02-19T17:34:37.795Z,10.30
2019-02-19T17:37:31.972Z,10.30
2019-02-19T17:40:08.503Z,10.10
2019-02-19T17:42:43.277Z,10.10
2019-02-19T17:45:32.139Z,10.00
2019-02-19T17:48:20.277Z,10.00
2019-02-19T17:51:06.997Z,9.90
2019-02-19T17:53:59.260Z,9.90
2019-02-19T17:56:52.529Z,10.00
2019-02-19T17:59:50.174Z,10.00
2019-02-19T18:02:41.382Z,10.00
2019-02-19T18:05:29.762Z,10.00
2019-02-19T18:08:22.727Z,9.90
2019-02-19T18:11:00.477Z,9.90
2019-02-19T18:13:46.266Z,9.90
2019-02-19T18:16:50.453Z,9.80
2019-02-19T18:19:25.595Z,9.80
2019-02-19T18:21:55.892Z,9.70
2019-02-19T18:24:27.161Z,9.70
2019-02-19T18:26:56.679Z,9.70
2019-02-19T18:29:26.156Z,9.70
2019-02-19T18:31:55.616Z,9.70
2019-02-19T18:34:26.115Z,9.70
2019-02-19T18:36:55.664Z,9.70
2019-02-19T18:39:25.194Z,9.70
2019-02-19T18:41:55.027Z,9.70
2019-02-19T18:44:24.509Z,9.70
2019-02-19T18:46:55.345Z,9.70
2019-02-19T18:49:25.270Z,9.60
2019-02-19T18:51:55.438Z,9.60
2019-02-19T18:54:26.166Z,9.60
2019-02-19T18:56:56.011Z,9.70
2019-02-19T18:59:25.554Z,9.70
2019-02-19T19:01:54.920Z,9.60
2019-02-19T19:04:24.437Z,9.60
2019-02-19T19:06:53.953Z,9.50
2019-02-19T19:09:23.454Z,9.40
2019-02-19T19:11:52.984Z,9.40
2019-02-19T19:14:22.662Z,9.50
2019-02-19T19:16:52.039Z,9.50
2019-02-19T19:19:21.429Z,9.60
2019-02-19T19:21:50.709Z,9.70
2019-02-19T19:24:20.482Z,9.70
2019-02-19T19:26:49.910Z,9.70
2019-02-19T19:29:19.381Z,9.60
2019-02-19T19:31:48.922Z,9.60
2019-02-19T19:34:18.390Z,9.50
2019-02-19T19:36:47.894Z,9.50
2019-02-19T19:39:17.372Z,9.50
2019-02-19T19:41:47.289Z,9.40
2019-02-19T19:44:16.635Z,9.40
2019-02-19T19:46:46.352Z,9.50
2019-02-19T19:49:15.665Z,9.30
2019-02-19T19:51:45.166Z,9.20
2019-02-19T19:54:14.566Z,9.10
2019-02-19T19:56:43.996Z,8.90
2019-02-19T19:59:13.343Z,8.80
2019-02-19T20:01:42.843Z,8.80
2019-02-19T20:04:12.262Z,8.80
2019-02-19T20:06:42.137Z,8.80
2019-02-19T20:09:11.984Z,8.70
2019-02-19T20:11:42.646Z,8.70
2019-02-19T20:14:12.292Z,8.70
2019-02-19T20:16:41.806Z,8.70
2019-02-19T20:19:12.264Z,8.70
2019-02-19T20:21:41.689Z,8.60
2019-02-19T20:24:13.675Z,8.70
2019-02-19T20:26:44.981Z,8.70
2019-02-19T20:29:14.469Z,8.70
2019-02-19T20:31:44.085Z,8.80
2019-02-19T20:34:14.778Z,8.90
2019-02-19T20:36:46.261Z,8.80
2019-02-19T20:39:15.850Z,8.80
2019-02-19T20:41:47.977Z,8.80
2019-02-19T20:44:17.799Z,8.70
2019-02-19T20:46:52.331Z,8.70
2019-02-19T20:49:23.767Z,8.60
2019-02-19T20:51:56.073Z,8.70
2019-02-19T20:54:27.493Z,8.70
2019-02-19T20:56:57.018Z,8.70
2019-02-19T20:59:26.732Z,8.70
2019-02-19T21:01:57.394Z,8.70
2019-02-19T21:04:32.619Z,8.70
2019-02-19T21:07:05.627Z,8.70
2019-02-19T21:09:43.858Z,8.70
2019-02-19T21:12:12.281Z,8.80
2019-02-19T21:14:42.936Z,8.80
2019-02-19T21:17:14.432Z,8.70
2019-02-19T21:19:44.039Z,8.60
2019-02-19T21:22:15.625Z,8.70
2019-02-19T21:24:45.766Z,8.80
2019-02-19T21:27:17.162Z,8.90
2019-02-19T21:29:46.774Z,9.00
2019-02-19T21:32:16.278Z,9.00
2019-02-19T21:34:45.961Z,9.00
2019-02-19T21:37:18.060Z,9.00
2019-02-19T21:39:47.718Z,8.90
2019-02-19T21:42:17.119Z,8.90
2019-02-19T21:44:48.625Z,8.90
2019-02-19T21:47:19.166Z,9.00
2019-02-19T21:49:48.786Z,9.10
2019-02-19T21:52:19.439Z,9.20
2019-02-19T21:54:48.754Z,9.20
2019-02-19T21:57:20.169Z,9.30
2019-02-19T21:59:49.612Z,9.30
2019-02-19T22:02:22.329Z,9.30
2019-02-19T22:04:51.829Z,9.30
2019-02-19T22:07:21.196Z,9.30
2019-02-19T22:09:51.015Z,9.30
2019-02-19T22:12:21.182Z,9.20
2019-02-19T22:14:50.897Z,9.20
2019-02-19T22:17:20.453Z,9.10
2019-02-19T22:19:50.807Z,9.10
2019-02-19T22:22:22.540Z,9.10
2019-02-19T22:24:52.022Z,9.10
2019-02-19T22:27:22.252Z,9.10
2019-02-19T22:29:51.603Z,9.10
2019-02-19T22:32:21.080Z,9.10
2019-02-19T22:34:50.353Z,9.10
2019-02-19T22:37:19.889Z,9.20
2019-02-19T22:39:49.247Z,9.20
2019-02-19T22:42:18.794Z,9.20
2019-02-19T22:44:48.145Z,9.20
2019-02-19T22:47:23.440Z,9.20
2019-02-19T22:49:53.451Z,9.20
2019-02-19T22:52:22.845Z,9.20
2019-02-19T22:55:04.526Z,9.20
2019-02-19T22:57:33.814Z,9.10
2019-02-19T23:00:07.017Z,9.10
2019-02-19T23:02:36.511Z,9.10
2019-02-19T23:05:06.221Z,9.10
2019-02-19T23:07:36.730Z,9.10
2019-02-19T23:10:06.585Z,9.10
2019-02-19T23:12:35.973Z,9.10
2019-02-19T23:15:06.389Z,9.10
2019-02-19T23:17:35.824Z,9.10
2019-02-19T23:20:06.302Z,9.10
2019-02-19T23:22:35.656Z,9.10
2019-02-19T23:25:05.162Z,9.10
2019-02-19T23:27:35.607Z,9.10
2019-02-19T23:30:06.508Z,9.10
2019-02-19T23:32:35.957Z,9.10
2019-02-19T23:35:22.861Z,9.00
2019-02-19T23:37:56.382Z,9.00
2019-02-19T23:40:27.016Z,8.90
2019-02-19T23:42:56.392Z,9.00
2019-02-19T23:45:25.754Z,9.10
2019-02-19T23:47:55.157Z,9.10
2019-02-19T23:50:26.217Z,9.20
2019-02-19T23:52:55.967Z,9.20
2019-02-19T23:55:25.354Z,9.20
2019-02-19T23:57:54.737Z,9.20
